Time;durP1;ratioP1;P1;durP2;ratioP2;P2;SDS_P1;SDS_P2;PMS_P1;PMS_P2;Temp;Humidity;BMP_temperature;BMP_pressure;BME280_temperature;BME280_humidity;BME280_pressure;Samples;Min_cycle;Max_cycle;Signal;HPM_P1;HPM_P2
2021/03/19 00:02:00;;;;;;;184.80;68.77;;;-5.70;95.20;;;;;;5013170;28;20025;-77
2021/03/19 00:04:26;;;;;;;183.60;66.73;;;-5.80;96.10;;;;;;5012931;28;20034;-77
2021/03/19 00:06:52;;;;;;;190.40;69.93;;;-5.80;95.90;;;;;;5013117;28;20023;-77
2021/03/19 00:09:17;;;;;;;196.77;70.03;;;-5.80;96.20;;;;;;5012978;28;20033;-77
2021/03/19 00:11:43;;;;;;;181.17;68.63;;;-5.90;98.40;;;;;;5011845;28;20025;-77
2021/03/19 00:14:10;;;;;;;187.30;74.37;;;-5.90;99.00;;;;;;5011422;28;20040;-77
2021/03/19 00:16:37;;;;;;;153.37;58.43;;;-6.00;99.50;;;;;;5012269;28;20058;-77
2021/03/19 00:19:05;;;;;;;144.23;54.33;;;-6.00;99.90;;;;;;5011362;28;20026;-77
2021/03/19 00:21:31;;;;;;;138.63;51.60;;;-6.00;99.90;;;;;;5011717;28;20458;-77
2021/03/19 00:23:57;;;;;;;117.70;44.60;;;-6.00;99.90;;;;;;5012251;28;20423;-77
2021/03/19 00:26:23;;;;;;;128.57;50.33;;;-6.00;99.90;;;;;;5011495;28;20033;-77
2021/03/19 00:28:50;;;;;;;136.47;51.77;;;-6.00;99.90;;;;;;5012930;28;20448;-77
2021/03/19 00:31:16;;;;;;;171.57;66.67;;;-6.00;98.80;;;;;;5012759;28;20125;-77
2021/03/19 00:33:41;;;;;;;195.47;70.37;;;-6.10;97.70;;;;;;5012725;28;20030;-77
2021/03/19 00:36:07;;;;;;;175.27;62.27;;;-6.30;96.80;;;;;;5012805;28;20525;-78
2021/03/19 00:38:33;;;;;;;170.17;59.03;;;-6.30;96.70;;;;;;5008788;28;20400;-77
2021/03/19 00:40:59;;;;;;;150.27;55.23;;;-6.30;96.80;;;;;;4995787;28;20018;-78
2021/03/19 00:43:25;;;;;;;163.23;57.63;;;-6.30;96.80;;;;;;4995882;28;20030;-79
2021/03/19 00:45:51;;;;;;;172.43;59.73;;;-6.30;98.20;;;;;;5013313;28;20109;-78
2021/03/19 00:48:16;;;;;;;180.10;59.07;;;-6.30;98.30;;;;;;5016443;28;20033;-78
2021/03/19 00:50:43;;;;;;;153.27;58.03;;;-6.30;98.50;;;;;;5015521;28;20498;-78
2021/03/19 00:53:10;;;;;;;156.33;58.23;;;-6.30;98.30;;;;;;5016393;28;20390;-78
2021/03/19 00:55:36;;;;;;;165.47;59.97;;;-6.30;98.80;;;;;;5016373;28;20430;-77
2021/03/19 00:58:02;;;;;;;160.23;63.43;;;-6.40;98.60;;;;;;5016403;28;20361;-78
2021/03/19 01:00:31;;;;;;;174.03;60.33;;;-6.30;99.50;;;;;;5016329;28;20064;-77
2021/03/19 01:02:57;;;;;;;165.40;61.67;;;-6.30;99.90;;;;;;5014423;28;20022;-77
2021/03/19 01:05:26;;;;;;;175.97;62.70;;;-6.30;99.60;;;;;;5016231;28;20053;-77
2021/03/19 01:07:52;;;;;;;170.83;59.97;;;-6.30;98.70;;;;;;5014943;28;20022;-77
2021/03/19 01:10:27;;;;;;;168.00;59.90;;;-6.30;97.80;;;;;;5016068;28;20133;-76
2021/03/19 01:12:53;;;;;;;172.30;62.30;;;-6.40;98.70;;;;;;5015965;28;20026;-77
2021/03/19 01:15:19;;;;;;;158.70;56.53;;;-6.40;99.90;;;;;;5014626;28;20037;-78
2021/03/19 01:17:45;;;;;;;160.27;55.87;;;-6.40;99.90;;;;;;5015896;28;20061;-78
2021/03/19 01:20:15;;;;;;;142.97;57.83;;;-6.40;99.70;;;;;;5016215;28;20078;-77
2021/03/19 01:22:41;;;;;;;142.00;55.00;;;-6.40;99.90;;;;;;5012700;28;20053;-78
2021/03/19 01:25:10;;;;;;;156.40;56.23;;;-6.40;99.90;;;;;;4996198;28;20027;-77
2021/03/19 01:27:36;;;;;;;162.53;58.20;;;-6.40;99.90;;;;;;4995278;28;20027;-77
2021/03/19 01:30:08;;;;;;;147.10;54.10;;;-6.40;99.90;;;;;;4996052;28;20034;-77
2021/03/19 01:32:33;;;;;;;142.97;53.93;;;-6.40;99.20;;;;;;4999371;28;20063;-77
2021/03/19 01:34:59;;;;;;;138.90;53.50;;;-6.40;98.70;;;;;;5014199;28;20029;-77
2021/03/19 01:37:26;;;;;;;146.70;55.37;;;-6.40;98.30;;;;;;5014274;28;20029;-77
2021/03/19 01:39:52;;;;;;;180.40;65.97;;;-6.40;98.30;;;;;;5014288;28;20497;-76
2021/03/19 01:42:18;;;;;;;227.20;83.80;;;-6.40;97.70;;;;;;5015838;28;20097;-77
2021/03/19 01:45:21;;;;;;;243.83;81.83;;;-6.40;98.00;;;;;;5015520;28;20022;-77
2021/03/19 01:48:24;;;;;;;186.60;64.93;;;-6.40;98.50;;;;;;5014330;28;20060;-77
2021/03/19 01:51:27;;;;;;;231.55;82.03;;;-6.40;97.80;;;;;;5014564;28;20045;-77
2021/03/19 01:54:30;;;;;;;202.20;72.47;;;-6.50;96.50;;;;;;5013035;28;20041;-77
2021/03/19 01:57:33;;;;;;;195.68;69.15;;;-6.50;96.10;;;;;;5015099;28;20045;-76
2021/03/19 02:00:36;;;;;;;133.00;45.42;;;-6.50;96.80;;;;;;5015190;28;20084;-77
2021/03/19 02:03:40;;;;;;;149.38;55.42;;;-6.60;96.00;;;;;;5013359;28;20026;-78
2021/03/19 02:06:43;;;;;;;138.60;50.10;;;-6.60;96.40;;;;;;4994262;28;20030;-78
2021/03/19 02:09:46;;;;;;;125.13;43.00;;;-6.60;96.90;;;;;;5014300;28;20446;-77
2021/03/19 02:12:49;;;;;;;110.03;39.35;;;-6.60;98.20;;;;;;4998046;28;20061;-77
2021/03/19 02:15:56;;;;;;;96.03;35.03;;;-6.70;99.90;;;;;;5012023;28;20064;-77
2021/03/19 02:18:59;;;;;;;104.03;37.73;;;-6.60;99.90;;;;;;4997286;28;20463;-78
2021/03/19 02:22:02;;;;;;;123.30;44.03;;;-6.60;99.90;;;;;;5014981;28;20022;-78
2021/03/19 02:25:05;;;;;;;140.85;50.47;;;-6.50;99.90;;;;;;5013404;28;20034;-78
2021/03/19 02:28:08;;;;;;;183.48;62.13;;;-6.50;99.90;;;;;;5013538;28;20022;-77
2021/03/19 02:31:11;;;;;;;169.02;60.03;;;-6.60;99.90;;;;;;5012660;28;20121;-77
2021/03/19 02:33:59;;;;;;;131.02;46.78;;;-6.60;99.90;;;;;;5013373;28;20037;-76
2021/03/19 02:36:27;;;;;;;180.13;59.63;;;-6.60;99.30;;;;;;5014625;28;20022;-77
2021/03/19 02:38:53;;;;;;;194.67;62.93;;;-6.70;98.90;;;;;;5014467;28;20457;-76
2021/03/19 02:41:20;;;;;;;182.83;62.60;;;-6.70;99.10;;;;;;5013255;28;20054;-77
2021/03/19 02:43:46;;;;;;;110.57;42.53;;;-6.70;99.10;;;;;;5012859;28;20446;-77
2021/03/19 02:46:12;;;;;;;93.50;35.77;;;-6.70;99.90;;;;;;5014313;28;20060;-77
2021/03/19 02:48:38;;;;;;;99.27;36.40;;;-6.80;99.90;;;;;;5013858;28;20499;-77
2021/03/19 02:51:06;;;;;;;115.80;40.17;;;-6.80;99.90;;;;;;5012660;28;20034;-78
2021/03/19 02:53:33;;;;;;;100.13;37.93;;;-6.80;99.90;;;;;;5012903;28;20030;-78
2021/03/19 02:56:01;;;;;;;123.57;44.67;;;-6.80;99.90;;;;;;5012788;28;20132;-78
2021/03/19 02:58:27;;;;;;;143.80;50.73;;;-6.80;99.90;;;;;;5013980;28;20415;-77
2021/03/19 03:00:53;;;;;;;129.33;51.83;;;-6.80;99.90;;;;;;5014076;28;20025;-77
2021/03/19 03:03:19;;;;;;;124.93;46.93;;;-6.80;99.90;;;;;;5014268;28;20030;-77
2021/03/19 03:05:44;;;;;;;118.70;45.53;;;-6.80;99.90;;;;;;5014027;28;20384;-77
2021/03/19 03:08:14;;;;;;;108.30;42.47;;;-6.70;99.90;;;;;;5013915;28;20060;-77
2021/03/19 03:10:41;;;;;;;154.50;53.37;;;-6.70;99.90;;;;;;5013956;28;20451;-77
2021/03/19 03:13:08;;;;;;;180.37;62.40;;;-6.80;99.90;;;;;;5013573;28;20030;-76
2021/03/19 03:15:34;;;;;;;185.13;64.33;;;-6.80;98.40;;;;;;5013852;28;20034;-79
2021/03/19 03:17:59;;;;;;;173.30;64.63;;;-6.90;97.30;;;;;;5013352;28;20053;-78
2021/03/19 03:20:29;;;;;;;209.70;76.40;;;-6.90;96.10;;;;;;5012371;28;20480;-77
2021/03/19 03:22:55;;;;;;;163.87;59.33;;;-7.00;97.10;;;;;;5013951;28;20025;-77
2021/03/19 03:25:23;;;;;;;166.63;61.13;;;-7.00;98.60;;;;;;5013644;28;20034;-76
2021/03/19 03:27:50;;;;;;;137.27;47.53;;;-7.00;99.00;;;;;;5013626;28;20026;-76
2021/03/19 03:30:32;;;;;;;116.83;46.03;;;-6.90;99.90;;;;;;5013446;28;20030;-77
2021/03/19 03:32:58;;;;;;;112.93;46.13;;;-6.90;99.90;;;;;;5012357;28;20018;-76
2021/03/19 03:35:25;;;;;;;155.47;56.47;;;-6.80;99.90;;;;;;5013297;28;20033;-76
2021/03/19 03:37:52;;;;;;;142.40;53.90;;;-6.80;98.90;;;;;;5012293;28;20387;-77
2021/03/19 03:40:29;;;;;;;173.87;61.90;;;-6.90;98.90;;;;;;5011194;28;20396;-76
2021/03/19 03:42:55;;;;;;;182.33;65.70;;;-6.90;99.00;;;;;;5013458;28;20060;-77
2021/03/19 03:45:21;;;;;;;164.67;60.93;;;-6.80;99.90;;;;;;5011789;28;20057;-77
2021/03/19 03:47:46;;;;;;;133.23;49.00;;;-6.80;99.90;;;;;;5009534;28;20052;-78
2021/03/19 03:50:16;;;;;;;107.93;39.10;;;-6.70;99.90;;;;;;5013040;28;20113;-78
2021/03/19 03:52:42;;;;;;;91.20;32.07;;;-6.70;99.90;;;;;;5013220;28;20528;-77
2021/03/19 03:55:09;;;;;;;66.47;26.63;;;-6.70;99.90;;;;;;5011349;28;20130;-77
2021/03/19 03:57:35;;;;;;;62.47;24.47;;;-6.70;99.90;;;;;;5013241;28;20018;-77
2021/03/19 04:00:02;;;;;;;49.10;21.33;;;-6.60;99.90;;;;;;5011757;28;20076;-76
2021/03/19 04:02:33;;;;;;;73.87;25.63;;;-6.60;99.90;;;;;;5013239;28;20060;-77
2021/03/19 04:04:58;;;;;;;53.20;25.10;;;-6.50;99.90;;;;;;5011806;28;20030;-76
2021/03/19 04:07:24;;;;;;;69.40;29.77;;;-6.50;99.90;;;;;;5013153;28;20026;-77
2021/03/19 04:09:52;;;;;;;79.07;29.40;;;-6.40;99.90;;;;;;5010945;28;20036;-77
2021/03/19 04:12:19;;;;;;;105.60;38.73;;;-6.30;99.90;;;;;;5010985;28;20030;-78
2021/03/19 04:14:44;;;;;;;120.80;43.63;;;-6.30;99.90;;;;;;5011320;28;20033;-76
2021/03/19 04:17:22;;;;;;;143.53;53.30;;;-6.30;99.90;;;;;;5012934;28;20022;-77
2021/03/19 04:19:47;;;;;;;163.50;53.87;;;-6.30;99.90;;;;;;5011632;28;20353;-77
2021/03/19 04:22:13;;;;;;;167.17;58.33;;;-6.30;99.90;;;;;;5011681;28;20132;-77
2021/03/19 04:24:39;;;;;;;143.27;56.17;;;-6.30;99.90;;;;;;5012922;28;20383;-77
2021/03/19 04:27:05;;;;;;;146.20;53.10;;;-6.30;99.90;;;;;;5012970;28;20102;-77
2021/03/19 04:29:30;;;;;;;137.33;46.80;;;-6.30;99.90;;;;;;5011526;28;20037;-77
2021/03/19 04:31:56;;;;;;;161.57;55.70;;;-6.20;99.90;;;;;;5011628;28;20025;-78
2021/03/19 04:34:22;;;;;;;137.17;51.73;;;-6.20;99.90;;;;;;5009801;28;20056;-76
2021/03/19 04:36:50;;;;;;;168.60;58.43;;;-6.10;99.90;;;;;;5012873;28;20029;-77
2021/03/19 04:39:22;;;;;;;167.43;58.97;;;-6.10;99.90;;;;;;5012685;28;20464;-77
2021/03/19 04:41:52;;;;;;;181.37;63.83;;;-6.10;99.90;;;;;;5011664;28;20108;-77
2021/03/19 04:44:19;;;;;;;244.03;83.30;;;-6.10;99.90;;;;;;5011778;28;20116;-77
2021/03/19 04:46:45;;;;;;;204.27;74.10;;;-6.10;99.90;;;;;;5012794;28;20014;-78
2021/03/19 04:49:12;;;;;;;176.57;62.40;;;-6.20;99.90;;;;;;5012674;28;20026;-77
2021/03/19 04:51:37;;;;;;;138.60;51.93;;;-6.20;99.90;;;;;;5012716;28;20034;-78
2021/03/19 04:54:04;;;;;;;113.43;44.50;;;-6.20;99.90;;;;;;5011949;28;20032;-77
2021/03/19 04:56:29;;;;;;;122.27;44.23;;;-6.20;99.90;;;;;;5011376;28;20057;-77
2021/03/19 04:58:55;;;;;;;119.13;45.27;;;-6.20;99.90;;;;;;5012673;28;20022;-77
2021/03/19 05:01:21;;;;;;;113.23;46.73;;;-6.20;99.90;;;;;;5012616;28;20037;-78
2021/03/19 05:03:47;;;;;;;115.10;43.60;;;-6.10;99.90;;;;;;5012265;28;20122;-78
2021/03/19 05:06:14;;;;;;;122.03;45.87;;;-6.00;99.90;;;;;;5011261;28;20427;-77
2021/03/19 05:08:41;;;;;;;114.63;46.03;;;-6.00;99.90;;;;;;5011303;28;20026;-78
2021/03/19 05:11:07;;;;;;;122.40;45.80;;;-5.90;99.90;;;;;;5012391;28;20038;-78
2021/03/19 05:13:33;;;;;;;112.80;46.43;;;-5.90;99.90;;;;;;5010676;28;20037;-78
2021/03/19 05:15:59;;;;;;;139.03;51.33;;;-5.90;99.90;;;;;;5010492;28;20026;-78
2021/03/19 05:18:24;;;;;;;136.57;49.40;;;-5.80;99.90;;;;;;5012450;28;20032;-77
2021/03/19 05:20:50;;;;;;;134.73;48.03;;;-5.80;99.90;;;;;;5012350;28;20029;-79
2021/03/19 05:23:26;;;;;;;143.97;49.90;;;-5.70;99.90;;;;;;5012287;28;20026;-78
2021/03/19 05:25:52;;;;;;;121.20;47.93;;;-5.70;99.90;;;;;;5013337;28;20503;-78
2021/03/19 05:28:19;;;;;;;122.03;45.00;;;-5.60;99.90;;;;;;5014641;28;20037;-78
2021/03/19 05:30:45;;;;;;;110.27;44.47;;;-5.50;99.90;;;;;;5015519;28;20396;-77
2021/03/19 05:33:11;;;;;;;123.27;47.27;;;-5.40;99.90;;;;;;5014101;28;20516;-77
2021/03/19 05:35:37;;;;;;;124.23;45.30;;;-5.30;99.90;;;;;;5015740;28;20033;-76
2021/03/19 05:38:03;;;;;;;115.13;44.87;;;-5.30;99.90;;;;;;5014395;28;20029;-77
2021/03/19 05:40:37;;;;;;;131.13;47.87;;;-5.20;99.90;;;;;;5015630;28;20056;-77
2021/03/19 05:43:40;;;;;;;136.57;51.93;;;-5.10;99.90;;;;;;5015809;28;20057;-77
2021/03/19 05:46:13;;;;;;;176.07;56.08;;;-5.10;99.90;;;;;;4993646;28;20026;-77
2021/03/19 05:48:54;;;;;;;308.23;94.20;;;-5.00;99.90;;;;;;4991582;28;20034;-77
2021/03/19 05:51:42;;;;;;;291.00;90.47;;;-4.90;99.90;;;;;;5006142;28;20034;-78
2021/03/19 05:54:25;;;;;;;299.83;97.30;;;-4.80;99.90;;;;;;5015288;28;20033;-78
2021/03/19 05:56:59;;;;;;;317.08;101.25;;;-4.70;99.90;;;;;;5014059;28;20539;-78
2021/03/19 05:59:26;;;;;;;191.53;67.90;;;-4.50;99.90;;;;;;5015305;28;20099;-78
2021/03/19 06:01:51;;;;;;;178.43;62.87;;;-4.40;99.90;;;;;;5015333;28;20030;-77
2021/03/19 06:04:30;;;;;;;173.18;60.45;;;-4.30;99.90;;;;;;5015440;28;20041;-77
2021/03/19 06:07:00;;;;;;;166.13;60.33;;;-4.10;99.90;;;;;;5013924;28;20022;-78
2021/03/19 06:09:43;;;;;;;168.83;63.10;;;-4.00;99.90;;;;;;5013816;28;20025;-78
2021/03/19 06:12:13;;;;;;;166.55;62.25;;;-3.80;99.90;;;;;;5013776;28;20400;-77
2021/03/19 06:14:48;;;;;;;185.82;67.47;;;-3.70;99.90;;;;;;5013797;28;20033;-76
2021/03/19 06:17:24;;;;;;;258.30;85.30;;;-3.60;99.90;;;;;;5014872;28;20028;-77
2021/03/19 06:20:02;;;;;;;139.80;55.65;;;-3.60;99.90;;;;;;5014175;28;20041;-78
2021/03/19 06:22:47;;;;;;;113.30;47.72;;;-3.50;99.90;;;;;;5014827;28;20542;-79
2021/03/19 06:25:29;;;;;;;109.53;44.58;;;-3.40;99.90;;;;;;5013137;28;20034;-78
2021/03/19 06:27:56;;;;;;;175.38;72.47;;;-3.30;99.90;;;;;;5013482;28;20391;-78
2021/03/19 06:30:25;;;;;;;179.98;74.60;;;-3.20;99.90;;;;;;5013345;28;20041;-78
2021/03/19 06:33:24;;;;;;;113.75;47.17;;;-3.20;99.90;;;;;;5013505;28;20037;-79
2021/03/19 06:36:19;;;;;;;111.15;47.83;;;-3.10;99.90;;;;;;5013584;28;20033;-79
2021/03/19 06:39:14;;;;;;;115.50;48.25;;;-3.10;99.90;;;;;;5014525;28;20025;-79
2021/03/19 06:41:40;;;;;;;131.20;55.90;;;-3.00;99.90;;;;;;5010487;28;20487;-79
2021/03/19 06:44:18;;;;;;;120.55;48.53;;;-2.90;99.90;;;;;;5011817;28;20120;-78
2021/03/19 06:46:51;;;;;;;121.68;52.00;;;-2.80;99.90;;;;;;5001056;28;20031;-79
2021/03/19 06:49:19;;;;;;;118.97;49.03;;;-2.70;99.90;;;;;;5009615;28;20025;-78
2021/03/19 06:51:50;;;;;;;118.78;50.88;;;-2.60;99.90;;;;;;5010799;28;20037;-78
2021/03/19 06:54:25;;;;;;;157.33;64.37;;;-2.50;99.90;;;;;;5004234;28;20014;-78
2021/03/19 06:57:00;;;;;;;147.73;61.33;;;-2.50;99.90;;;;;;5005632;28;20100;-79
2021/03/19 06:59:28;;;;;;;186.73;79.25;;;-2.40;99.90;;;;;;5005248;28;20026;-78
2021/03/19 07:01:55;;;;;;;116.20;53.95;;;-2.40;99.90;;;;;;5005223;28;20018;-77
2021/03/19 07:04:41;;;;;;;102.32;45.22;;;-2.30;99.90;;;;;;5007843;28;20054;-77
2021/03/19 07:07:29;;;;;;;102.88;46.58;;;-2.30;99.90;;;;;;5005641;28;20461;-77
2021/03/19 07:10:27;;;;;;;124.43;51.65;;;-2.20;99.90;;;;;;5010794;28;20030;-77
2021/03/19 07:13:12;;;;;;;113.57;45.88;;;-2.00;99.90;;;;;;5009126;28;20060;-78
2021/03/19 07:15:41;;;;;;;102.35;43.75;;;-1.90;99.90;;;;;;5011014;28;20036;-78
2021/03/19 07:18:44;;;;;;;111.30;51.15;;;-1.80;99.90;;;;;;5009686;28;20033;-78
2021/03/19 07:21:46;;;;;;;137.68;61.85;;;-1.70;99.90;;;;;;5010734;28;20026;-78
2021/03/19 07:24:29;;;;;;;138.57;64.57;;;-1.50;99.90;;;;;;5009041;28;20034;-78
2021/03/19 07:27:10;;;;;;;137.88;62.35;;;-1.30;99.90;;;;;;5010710;28;20034;-79
2021/03/19 07:29:39;;;;;;;118.22;51.40;;;-1.20;99.90;;;;;;5011672;28;20057;-77
2021/03/19 07:32:22;;;;;;;100.13;42.28;;;-1.10;99.90;;;;;;5011804;28;20026;-78
2021/03/19 07:35:13;;;;;;;95.38;42.60;;;-0.90;99.90;;;;;;5011148;28;20033;-78
2021/03/19 07:38:27;;;;;;;84.68;36.78;;;-0.90;99.90;;;;;;5009850;28;20034;-78
2021/03/19 07:41:11;;;;;;;91.38;41.30;;;-0.70;99.90;;;;;;5003850;28;20465;-78
2021/03/19 07:44:01;;;;;;;92.40;42.00;;;-0.60;99.90;;;;;;5007323;28;20037;-78
2021/03/19 07:46:39;;;;;;;75.95;31.35;;;-0.40;99.90;;;;;;5004535;28;20081;-78
2021/03/19 07:49:17;;;;;;;82.53;35.40;;;-0.30;99.90;;;;;;4999179;28;20364;-77
2021/03/19 07:52:02;;;;;;;77.43;31.38;;;-0.10;98.00;;;;;;5000588;28;20072;-78
2021/03/19 07:54:48;;;;;;;64.25;27.48;;;0.00;92.40;;;;;;4999809;28;20030;-78
2021/03/19 07:57:26;;;;;;;50.13;22.88;;;0.30;89.70;;;;;;5003190;28;20415;-78
2021/03/19 08:00:08;;;;;;;59.78;26.73;;;0.40;87.80;;;;;;5000737;28;20080;-78
2021/03/19 08:02:55;;;;;;;46.88;22.27;;;0.50;85.10;;;;;;5005548;28;20515;-78
2021/03/19 08:05:26;;;;;;;65.40;26.58;;;0.60;85.30;;;;;;5008875;28;20034;-78
2021/03/19 08:08:15;;;;;;;69.82;31.83;;;0.60;83.30;;;;;;5009242;28;20051;-77
2021/03/19 08:10:56;;;;;;;61.83;27.77;;;0.80;82.00;;;;;;5004497;28;20042;-78
2021/03/19 08:13:46;;;;;;;65.80;27.70;;;1.10;80.80;;;;;;5010866;28;20030;-79
2021/03/19 08:16:23;;;;;;;62.83;27.92;;;1.40;77.70;;;;;;5010870;28;20060;-78
2021/03/19 08:19:04;;;;;;;60.90;27.42;;;1.70;75.50;;;;;;5010407;28;20029;-78
2021/03/19 08:21:40;;;;;;;63.95;29.92;;;1.60;74.10;;;;;;5009363;28;20059;-80
2021/03/19 08:24:24;;;;;;;65.22;29.35;;;1.40;75.60;;;;;;5009600;28;20029;-83
2021/03/19 08:27:11;;;;;;;61.63;28.80;;;1.10;77.30;;;;;;5009312;28;20038;-80
2021/03/19 08:30:05;;;;;;;30.92;16.63;;;0.90;77.10;;;;;;5007379;28;20037;-79
2021/03/19 08:32:56;;;;;;;41.10;20.67;;;0.60;75.40;;;;;;5005349;28;20033;-79
2021/03/19 08:35:24;;;;;;;32.28;15.48;;;0.40;73.30;;;;;;5002328;28;20057;-78
2021/03/19 08:37:56;;;;;;;31.80;15.75;;;0.30;73.50;;;;;;5001464;28;20050;-77
2021/03/19 08:40:41;;;;;;;34.83;15.82;;;0.30;73.70;;;;;;5005328;28;20352;-77
2021/03/19 08:43:19;;;;;;;28.98;16.00;;;0.30;75.80;;;;;;5007556;28;20022;-78
2021/03/19 08:45:44;;;;;;;42.67;19.98;;;0.30;76.90;;;;;;5006188;28;20088;-78
2021/03/19 08:48:14;;;;;;;30.58;17.42;;;0.30;74.70;;;;;;5002517;28;20500;-78
2021/03/19 08:50:43;;;;;;;31.30;18.05;;;0.20;72.30;;;;;;5003167;28;20049;-78
2021/03/19 08:53:21;;;;;;;37.00;17.75;;;0.30;72.30;;;;;;4998718;28;20383;-78
2021/03/19 08:55:47;;;;;;;31.90;16.15;;;0.30;71.50;;;;;;5001934;28;20034;-79
2021/03/19 08:58:28;;;;;;;40.72;21.27;;;0.30;70.60;;;;;;5006260;28;20619;-78
2021/03/19 09:00:58;;;;;;;38.33;19.25;;;0.20;73.70;;;;;;5012440;28;20021;-78
2021/03/19 09:03:42;;;;;;;45.83;20.67;;;0.30;72.80;;;;;;5008949;28;20084;-78
2021/03/19 09:06:12;;;;;;;46.25;20.67;;;0.30;73.10;;;;;;5012682;28;20022;-77
2021/03/19 09:08:44;;;;;;;46.70;21.25;;;0.30;73.80;;;;;;5013550;28;20021;-77
2021/03/19 09:11:19;;;;;;;43.22;20.58;;;0.40;73.40;;;;;;5013051;28;20030;-79
2021/03/19 09:14:00;;;;;;;35.75;19.02;;;0.40;72.20;;;;;;5012767;28;20195;-78
2021/03/19 09:16:47;;;;;;;33.85;17.02;;;0.40;71.20;;;;;;5012540;28;20029;-78
2021/03/19 09:19:31;;;;;;;37.20;18.15;;;0.40;69.20;;;;;;5012077;28;20044;-78
2021/03/19 09:22:22;;;;;;;38.72;17.55;;;0.60;68.90;;;;;;5012323;28;20396;-79
2021/03/19 09:25:13;;;;;;;41.88;17.75;;;0.60;68.50;;;;;;5011773;28;20033;-79
2021/03/19 09:27:45;;;;;;;32.40;16.63;;;0.60;68.40;;;;;;5009898;28;20060;-79
2021/03/19 09:30:23;;;;;;;32.78;17.52;;;0.50;68.40;;;;;;5012832;28;20495;-78
2021/03/19 09:32:55;;;;;;;51.35;27.25;;;0.40;68.90;;;;;;5011454;28;20033;-81
2021/03/19 09:35:35;;;;;;;78.00;39.20;;;0.00;85.60;;;;;;5011748;28;20075;-79
2021/03/19 09:38:02;;;;;;;52.70;24.40;;;-0.30;99.90;;;;;;5013455;28;20030;-79
2021/03/19 09:40:57;;;;;;;54.38;23.60;;;-0.60;99.90;;;;;;5013420;28;20025;-79
2021/03/19 09:43:37;;;;;;;39.50;20.95;;;-0.90;99.90;;;;;;5011865;28;20021;-79
2021/03/19 09:46:14;;;;;;;41.28;19.83;;;-1.10;99.90;;;;;;5013300;28;20045;-79
2021/03/19 09:48:51;;;;;;;20.25;11.10;;;-1.20;99.90;;;;;;5010204;28;20041;-79
2021/03/19 09:51:30;;;;;;;19.85;10.50;;;-1.50;99.90;;;;;;5008866;28;20059;-80
2021/03/19 09:53:56;;;;;;;19.10;11.30;;;-1.70;99.90;;;;;;5007022;28;20117;-79
2021/03/19 09:56:26;;;;;;;25.42;11.77;;;-1.70;99.90;;;;;;5013671;28;20026;-79
2021/03/19 09:58:55;;;;;;;20.65;11.63;;;-1.50;99.90;;;;;;5008022;28;20033;-79
2021/03/19 10:01:42;;;;;;;20.25;10.30;;;-1.10;99.90;;;;;;5012873;28;20450;-79
2021/03/19 10:04:12;;;;;;;17.65;9.32;;;-0.70;99.90;;;;;;5009300;28;20026;-79
2021/03/19 10:06:45;;;;;;;48.95;19.77;;;-0.20;99.90;;;;;;5007807;28;20042;-78
2021/03/19 10:09:20;;;;;;;83.10;26.58;;;0.10;98.50;;;;;;5010708;28;20022;-79
2021/03/19 10:11:59;;;;;;;78.70;29.25;;;0.70;92.70;;;;;;5006553;28;20042;-80
2021/03/19 10:14:30;;;;;;;49.35;19.10;;;0.90;84.80;;;;;;5008061;28;20124;-80
2021/03/19 10:17:11;;;;;;;59.70;24.13;;;1.30;81.60;;;;;;5010037;28;20060;-79
2021/03/19 10:19:52;;;;;;;84.15;30.90;;;1.50;76.30;;;;;;5011691;28;20113;-79
2021/03/19 10:22:42;;;;;;;140.30;47.45;;;1.60;74.90;;;;;;5008172;28;20045;-78
2021/03/19 10:25:13;;;;;;;44.88;20.55;;;1.90;75.20;;;;;;5011188;28;20060;-80
2021/03/19 10:27:48;;;;;;;35.90;18.55;;;2.00;75.30;;;;;;5007591;28;20022;-80
2021/03/19 10:30:20;;;;;;;52.90;23.60;;;2.00;75.70;;;;;;5010449;28;20049;-79
2021/03/19 10:32:46;;;;;;;52.17;25.00;;;2.00;75.20;;;;;;5010628;28;20076;-79
2021/03/19 10:35:18;;;;;;;65.10;28.30;;;1.70;77.80;;;;;;5010313;28;20083;-79
2021/03/19 10:38:14;;;;;;;42.85;20.80;;;1.60;76.70;;;;;;5003560;28;20511;-80
2021/03/19 10:40:45;;;;;;;46.53;23.23;;;1.50;71.90;;;;;;5003640;28;20037;-78
2021/03/19 10:43:32;;;;;;;43.25;17.05;;;1.60;75.60;;;;;;5002271;28;20021;-78
2021/03/19 10:46:28;;;;;;;32.60;18.38;;;1.60;70.70;;;;;;5002640;28;20033;-78
2021/03/19 10:49:02;;;;;;;28.35;13.48;;;1.60;70.20;;;;;;4986312;28;20057;-78
2021/03/19 10:52:03;;;;;;;17.33;9.68;;;1.60;68.40;;;;;;5003335;28;20493;-79
2021/03/19 10:54:33;;;;;;;32.67;13.73;;;1.60;63.90;;;;;;4990733;28;20042;-78
2021/03/19 10:57:03;;;;;;;9.70;6.38;;;1.80;65.00;;;;;;5010415;28;20026;-78
2021/03/19 10:59:28;;;;;;;18.10;9.02;;;1.70;60.80;;;;;;5011898;28;20026;-79
2021/03/19 11:02:06;;;;;;;11.95;6.15;;;1.70;61.30;;;;;;5012226;28;20033;-78
2021/03/19 11:04:34;;;;;;;20.63;9.07;;;1.50;59.10;;;;;;5011776;28;20069;-78
2021/03/19 11:07:21;;;;;;;19.30;10.48;;;1.50;60.00;;;;;;5010833;28;20030;-78
2021/03/19 11:10:06;;;;;;;9.55;7.10;;;1.70;63.50;;;;;;5010675;28;20310;-78
2021/03/19 11:12:34;;;;;;;10.18;5.95;;;1.80;62.10;;;;;;5009070;28;20029;-78
2021/03/19 11:15:02;;;;;;;12.73;7.93;;;1.90;58.10;;;;;;5009516;28;20419;-78
2021/03/19 11:17:28;;;;;;;29.23;11.98;;;2.10;59.20;;;;;;5008600;28;20591;-79
2021/03/19 11:19:59;;;;;;;10.95;6.43;;;2.30;58.50;;;;;;5005276;28;20099;-77
2021/03/19 11:22:37;;;;;;;11.57;8.50;;;2.30;56.30;;;;;;5009839;28;20522;-78
2021/03/19 11:25:46;;;;;;;49.85;21.13;;;2.40;54.70;;;;;;5009899;28;20025;-78
2021/03/19 11:28:31;;;;;;;15.02;7.35;;;2.50;56.10;;;;;;5002571;28;20034;-78
2021/03/19 11:31:20;;;;;;;15.48;6.07;;;2.70;55.40;;;;;;5005327;28;20125;-78
2021/03/19 11:33:54;;;;;;;14.13;7.60;;;2.70;55.10;;;;;;5009348;28;20033;-78
2021/03/19 11:36:21;;;;;;;9.25;5.95;;;2.40;55.50;;;;;;5006775;28;20101;-78
2021/03/19 11:38:47;;;;;;;13.02;7.28;;;2.30;54.80;;;;;;5008153;28;20054;-78
2021/03/19 11:41:39;;;;;;;14.88;7.18;;;2.50;54.90;;;;;;5011306;28;20112;-78
2021/03/19 11:44:05;;;;;;;9.55;6.78;;;2.60;55.00;;;;;;5011357;28;20494;-77
2021/03/19 11:46:32;;;;;;;18.55;10.15;;;2.50;55.40;;;;;;5011312;28;20057;-78
2021/03/19 11:48:58;;;;;;;16.33;9.85;;;2.40;57.90;;;;;;5012657;28;20048;-77
2021/03/19 11:51:30;;;;;;;41.28;19.20;;;2.20;59.00;;;;;;5011131;28;20026;-78
2021/03/19 11:54:08;;;;;;;21.63;10.20;;;2.20;62.50;;;;;;5011218;28;20100;-77
2021/03/19 11:56:35;;;;;;;32.65;15.52;;;2.30;62.70;;;;;;5011120;28;20022;-79
2021/03/19 11:59:01;;;;;;;25.90;13.63;;;2.30;64.30;;;;;;5010771;28;20426;-79
2021/03/19 12:01:31;;;;;;;61.05;28.73;;;2.40;61.80;;;;;;5010621;28;20030;-78
2021/03/19 12:03:58;;;;;;;23.05;11.88;;;2.40;62.40;;;;;;5011052;28;20507;-79
2021/03/19 12:06:27;;;;;;;17.52;10.05;;;2.40;62.80;;;;;;5012522;28;20057;-77
2021/03/19 12:08:53;;;;;;;32.75;17.85;;;2.50;62.40;;;;;;5012541;28;20022;-78
2021/03/19 12:11:36;;;;;;;40.42;19.50;;;2.70;62.90;;;;;;5012358;28;20042;-78
2021/03/19 12:14:03;;;;;;;;;;;2.80;63.90;;;;;;5008779;28;20030;-78
2021/03/19 12:16:30;;;;;;;12.60;7.15;;;2.70;57.40;;;;;;5010913;28;19977;-80
2021/03/19 12:18:56;;;;;;;16.45;8.15;;;2.50;55.60;;;;;;5008657;28;20076;-80
2021/03/19 12:21:22;;;;;;;20.52;10.45;;;2.00;56.00;;;;;;5012173;28;20021;-79
2021/03/19 12:23:48;;;;;;;17.80;11.30;;;1.70;58.60;;;;;;5010476;28;20022;-79
2021/03/19 12:26:14;;;;;;;15.90;10.20;;;1.60;60.20;;;;;;5038075;28;20511;-78
2021/03/19 12:28:39;;;;;;;17.85;9.23;;;1.60;60.70;;;;;;5009651;28;20057;-79
2021/03/19 12:31:06;;;;;;;15.10;8.52;;;1.70;60.10;;;;;;5010072;28;20041;-79
2021/03/19 12:33:36;;;;;;;16.95;9.55;;;1.60;61.40;;;;;;5009082;28;20119;-79
2021/03/19 12:36:03;;;;;;;17.15;9.77;;;1.30;65.00;;;;;;5012244;28;20026;-78
2021/03/19 12:38:29;;;;;;;15.65;8.98;;;1.30;66.00;;;;;;5015109;28;20026;-77
2021/03/19 12:40:57;;;;;;;23.90;13.73;;;1.50;65.20;;;;;;5008393;28;20057;-77
2021/03/19 12:43:23;;;;;;;19.20;10.20;;;1.60;65.60;;;;;;4995829;28;20026;-79
2021/03/19 12:45:49;;;;;;;11.70;7.82;;;1.80;64.20;;;;;;4996971;28;20068;-78
2021/03/19 12:48:15;;;;;;;10.30;7.55;;;1.90;62.90;;;;;;4996878;28;20435;-79
2021/03/19 12:50:41;;;;;;;13.80;6.85;;;2.00;60.70;;;;;;4996821;28;20121;-77
2021/03/19 12:53:11;;;;;;;12.40;7.38;;;2.10;59.80;;;;;;5004509;28;20100;-77
2021/03/19 12:55:36;;;;;;;14.40;9.07;;;2.20;56.00;;;;;;5001142;28;20026;-77
2021/03/19 12:58:02;;;;;;;12.10;7.78;;;2.30;56.90;;;;;;5012954;28;20030;-78
2021/03/19 13:00:31;;;;;;;15.15;9.15;;;2.10;53.50;;;;;;5014947;28;20021;-78
2021/03/19 13:02:57;;;;;;;13.75;8.68;;;2.10;55.10;;;;;;5015023;28;20113;-77